createdAt,value
2022-12-09T00:01:53.877Z,76.47
2022-12-09T00:04:58.438Z,51.17
2022-12-09T00:08:02.909Z,50.08
2022-12-09T00:11:09.322Z,22.60
2022-12-09T00:14:13.657Z,20.95
2022-12-09T00:17:19.696Z,33.70
2022-12-09T00:20:24.271Z,29.08
2022-12-09T00:23:28.876Z,35.20
2022-12-09T00:26:34.075Z,58.53
2022-12-09T00:32:43.069Z,59.53
2022-12-09T00:35:48.847Z,38.55
2022-12-09T00:38:54.727Z,132.40
2022-12-09T00:41:59.534Z,94.57
2022-12-09T00:45:06.117Z,41.33
2022-12-09T00:48:11.136Z,52.70
2022-12-09T00:51:19.082Z,329.90
2022-12-09T00:54:23.516Z,117.28
2022-12-09T00:57:27.928Z,115.32
2022-12-09T01:00:32.586Z,43.47
2022-12-09T01:03:37.506Z,50.92
2022-12-09T01:06:44.667Z,40.45
2022-12-09T01:09:49.645Z,48.60
2022-12-09T01:12:53.807Z,59.15
2022-12-09T01:15:58.533Z,243.95
2022-12-09T01:19:06.893Z,61.40
2022-12-09T01:22:11.118Z,47.08
2022-12-09T01:25:15.626Z,34.35
2022-12-09T01:28:20.779Z,142.80
2022-12-09T01:31:26.604Z,58.63
2022-12-09T01:34:31.006Z,20.23
2022-12-09T01:37:37.445Z,21.38
2022-12-09T01:40:47.842Z,30.38
2022-12-09T01:44:19.502Z,23.05
2022-12-09T01:47:24.339Z,21.38
2022-12-09T01:50:30.216Z,19.80
2022-12-09T01:53:39.690Z,20.73
2022-12-09T01:56:44.080Z,27.75
2022-12-09T01:59:48.751Z,28.60
2022-12-09T02:02:55.834Z,19.80
2022-12-09T02:06:00.432Z,30.08
2022-12-09T02:09:05.830Z,39.58
2022-12-09T02:12:30.560Z,29.88
2022-12-09T02:15:46.089Z,21.25
2022-12-09T02:22:04.089Z,20.33
2022-12-09T02:25:35.949Z,22.55
2022-12-09T02:29:14.263Z,19.92
2022-12-09T02:32:56.122Z,15.93
2022-12-09T02:36:09.400Z,16.98
2022-12-09T02:39:15.408Z,17.85
2022-12-09T02:42:24.136Z,17.40
2022-12-09T02:45:31.093Z,25.73
2022-12-09T02:48:43.693Z,15.52
2022-12-09T02:51:51.525Z,17.80
2022-12-09T02:54:57.250Z,17.08
2022-12-09T02:58:02.890Z,21.83
2022-12-09T03:02:01.056Z,21.30
2022-12-09T03:05:05.876Z,39.47
2022-12-09T03:08:38.380Z,32.50
2022-12-09T03:11:43.239Z,36.63
2022-12-09T03:14:53.038Z,33.22
2022-12-09T03:17:59.893Z,32.00
2022-12-09T03:21:07.204Z,44.15
2022-12-09T03:24:14.907Z,15.85
2022-12-09T03:27:29.718Z,18.85
2022-12-09T03:30:40.272Z,18.02
2022-12-09T03:33:47.885Z,11.95
2022-12-09T03:36:54.019Z,18.27
2022-12-09T03:40:00.844Z,16.90
2022-12-09T03:43:14.598Z,17.92
2022-12-09T03:46:19.682Z,17.38
2022-12-09T03:49:24.246Z,16.83
2022-12-09T03:56:12.968Z,15.70
2022-12-09T03:59:17.586Z,16.33
2022-12-09T04:02:22.655Z,17.33
2022-12-09T04:05:27.157Z,17.58
2022-12-09T04:08:32.016Z,16.67
2022-12-09T04:11:36.735Z,20.73
2022-12-09T04:14:42.045Z,15.77
2022-12-09T04:17:46.904Z,12.55
2022-12-09T04:20:51.150Z,13.57
2022-12-09T04:23:55.668Z,17.63
2022-12-09T04:27:00.238Z,15.43
2022-12-09T04:30:06.375Z,23.77
2022-12-09T04:33:11.414Z,17.20
2022-12-09T04:36:19.177Z,16.08
2022-12-09T04:39:23.441Z,15.25
2022-12-09T04:42:31.035Z,19.80
2022-12-09T04:45:35.762Z,25.00
2022-12-09T04:48:40.584Z,26.08
2022-12-09T04:51:45.139Z,24.55
2022-12-09T04:54:51.621Z,49.90
2022-12-09T04:57:56.270Z,66.13
2022-12-09T05:01:01.129Z,81.73
2022-12-09T05:04:06.369Z,75.90
2022-12-09T05:07:12.689Z,54.80
2022-12-09T05:10:17.513Z,72.45
2022-12-09T05:13:22.025Z,56.33
2022-12-09T05:16:26.680Z,95.10
2022-12-09T05:19:31.249Z,30.98
2022-12-09T05:22:36.401Z,64.75
2022-12-09T05:25:40.648Z,49.13
2022-12-09T05:28:45.164Z,66.43
2022-12-09T05:31:49.991Z,41.33
2022-12-09T05:34:54.972Z,35.35
2022-12-09T05:38:00.561Z,21.52
2022-12-09T05:41:05.326Z,30.40
2022-12-09T05:44:12.919Z,28.95
2022-12-09T05:47:17.848Z,25.75
2022-12-09T05:50:23.138Z,22.05
2022-12-09T05:53:28.590Z,20.63
2022-12-09T05:56:34.420Z,19.92
2022-12-09T05:59:39.235Z,18.58
2022-12-09T06:02:43.924Z,20.13
2022-12-09T06:05:48.793Z,16.73
2022-12-09T06:08:57.308Z,25.50
2022-12-09T06:12:01.868Z,30.83
2022-12-09T06:15:09.761Z,19.95
2022-12-09T06:18:15.209Z,21.52
2022-12-09T06:21:21.850Z,87.63
2022-12-09T06:24:26.347Z,74.70
2022-12-09T06:27:30.837Z,33.58
2022-12-09T06:30:35.378Z,64.53
2022-12-09T06:33:57.127Z,17.02
2022-12-09T06:37:02.787Z,19.73
2022-12-09T06:40:08.643Z,29.10
2022-12-09T06:46:24.655Z,28.00
2022-12-09T06:49:29.533Z,22.65
2022-12-09T06:52:34.468Z,23.90
2022-12-09T06:55:39.087Z,21.02
2022-12-09T06:58:45.128Z,21.67
2022-12-09T07:01:49.879Z,18.13
2022-12-09T07:04:56.311Z,17.15
2022-12-09T07:08:01.143Z,22.17
2022-12-09T07:11:05.988Z,40.90
2022-12-09T07:14:11.745Z,26.70
2022-12-09T07:20:24.714Z,55.55
2022-12-09T07:23:29.557Z,82.35
2022-12-09T07:26:35.201Z,99.55
2022-12-09T07:29:39.615Z,94.50
2022-12-09T07:32:44.378Z,48.42
2022-12-09T07:35:49.004Z,24.08
2022-12-09T07:39:12.841Z,25.52
2022-12-09T07:42:19.216Z,39.78
2022-12-09T07:45:30.247Z,21.15
2022-12-09T07:48:35.161Z,40.60
2022-12-09T07:51:45.294Z,29.42
2022-12-09T07:54:49.880Z,29.35
2022-12-09T07:57:54.560Z,23.23
2022-12-09T08:01:08.239Z,31.83
2022-12-09T08:04:13.188Z,35.92
2022-12-09T08:07:18.454Z,24.50
2022-12-09T08:10:22.879Z,20.30
2022-12-09T08:13:27.924Z,26.58
2022-12-09T08:16:32.807Z,66.90
2022-12-09T08:19:37.268Z,95.65
2022-12-09T08:22:41.991Z,113.60
2022-12-09T08:25:46.680Z,86.15
2022-12-09T08:28:51.715Z,87.43
2022-12-09T08:31:56.840Z,54.58
2022-12-09T08:35:02.064Z,81.65
2022-12-09T08:38:07.251Z,64.85
2022-12-09T08:41:20.795Z,38.40
2022-12-09T08:44:25.952Z,49.63
2022-12-09T08:47:30.626Z,61.80
2022-12-09T08:50:36.186Z,60.90
2022-12-09T08:53:40.900Z,58.80
2022-12-09T08:56:50.079Z,165.80
2022-12-09T08:59:55.073Z,376.50
2022-12-09T09:02:59.862Z,346.75
2022-12-09T09:06:10.451Z,315.92
2022-12-09T09:09:16.789Z,317.42
2022-12-09T09:12:21.487Z,168.88
2022-12-09T09:15:27.613Z,136.20
2022-12-09T09:18:31.960Z,56.25
2022-12-09T09:21:37.372Z,30.15
2022-12-09T09:24:42.358Z,60.45
2022-12-09T09:27:47.156Z,80.33
2022-12-09T09:30:51.448Z,69.03
2022-12-09T09:33:56.916Z,75.32
2022-12-09T09:37:01.720Z,53.33
2022-12-09T09:40:07.812Z,33.35
2022-12-09T09:43:18.260Z,41.65
2022-12-09T09:46:37.075Z,34.67
2022-12-09T09:50:03.506Z,34.03
2022-12-09T09:53:35.773Z,53.15
2022-12-09T09:56:55.429Z,29.83
2022-12-09T10:00:23.094Z,37.30
2022-12-09T10:03:53.676Z,47.80
2022-12-09T10:07:20.119Z,56.25
2022-12-09T10:10:43.438Z,55.15
2022-12-09T10:13:56.643Z,52.40
2022-12-09T10:17:30.204Z,49.90
2022-12-09T10:20:38.447Z,55.50
2022-12-09T10:23:44.970Z,69.18
2022-12-09T10:27:29.118Z,77.40
2022-12-09T10:30:41.753Z,32.10
2022-12-09T10:33:52.320Z,66.10
2022-12-09T10:36:57.217Z,89.22
2022-12-09T10:40:13.609Z,104.82
2022-12-09T10:43:39.595Z,143.18
2022-12-09T10:49:53.473Z,227.30
2022-12-09T10:53:00.645Z,193.38
2022-12-09T10:56:05.821Z,68.90
2022-12-09T10:59:22.406Z,66.63
2022-12-09T11:02:29.411Z,58.72
2022-12-09T11:05:35.791Z,146.23
2022-12-09T11:08:43.440Z,86.43
2022-12-09T11:11:52.730Z,98.32
2022-12-09T11:15:02.102Z,64.60
2022-12-09T11:18:15.199Z,46.50
2022-12-09T11:21:33.446Z,39.95
2022-12-09T11:24:38.000Z,51.63
2022-12-09T11:27:54.575Z,52.97
2022-12-09T11:31:30.233Z,51.42
2022-12-09T11:34:38.132Z,69.78
2022-12-09T11:37:43.378Z,40.22
2022-12-09T11:41:04.199Z,87.55
2022-12-09T11:44:25.720Z,78.70
2022-12-09T11:51:06.225Z,71.05
2022-12-09T11:54:19.946Z,48.10
2022-12-09T11:57:39.934Z,74.20
2022-12-09T12:00:58.199Z,83.97
2022-12-09T12:04:09.054Z,63.13
2022-12-09T12:07:21.874Z,82.40
2022-12-09T12:10:43.056Z,151.80
2022-12-09T12:13:47.642Z,202.45
2022-12-09T12:17:08.672Z,112.03
2022-12-09T12:20:14.873Z,98.60
2022-12-09T12:23:47.305Z,104.32
2022-12-09T12:27:09.960Z,121.57
2022-12-09T12:30:17.913Z,122.55
2022-12-09T12:37:36.828Z,175.95
2022-12-09T12:41:09.660Z,134.15
2022-12-09T12:45:09.404Z,207.07
2022-12-09T12:48:28.674Z,160.93
2022-12-09T12:52:00.961Z,304.63
2022-12-09T12:55:23.794Z,163.02
2022-12-09T12:58:55.888Z,112.93
2022-12-09T13:02:24.628Z,135.43
2022-12-09T13:05:43.588Z,130.50
2022-12-09T13:09:01.305Z,129.20
2022-12-09T13:12:16.556Z,92.25
2022-12-09T13:15:26.897Z,80.95
2022-12-09T13:18:39.887Z,61.72
2022-12-09T13:21:48.733Z,64.15
2022-12-09T13:25:14.424Z,54.95
2022-12-09T13:28:30.196Z,65.00
2022-12-09T13:31:37.973Z,93.43
2022-12-09T13:34:55.926Z,79.47
2022-12-09T13:38:01.527Z,107.25
2022-12-09T13:44:35.299Z,54.60
2022-12-09T13:47:39.790Z,104.35
2022-12-09T13:50:45.343Z,99.27
2022-12-09T13:54:13.531Z,102.75
2022-12-09T13:57:42.654Z,67.82
2022-12-09T14:01:05.435Z,102.00
2022-12-09T14:04:22.550Z,88.18
2022-12-09T14:07:42.659Z,107.13
2022-12-09T14:10:50.139Z,167.73
2022-12-09T14:14:17.301Z,104.03
2022-12-09T14:17:30.617Z,126.05
2022-12-09T14:20:37.804Z,84.63
2022-12-09T14:24:17.317Z,95.55
2022-12-09T14:27:26.584Z,106.50
2022-12-09T14:30:30.700Z,106.70
2022-12-09T14:33:50.960Z,113.85
2022-12-09T14:37:20.897Z,90.60
2022-12-09T14:41:02.134Z,99.75
2022-12-09T14:44:32.125Z,573.40
2022-12-09T14:47:43.168Z,76.18
2022-12-09T14:50:47.827Z,150.40
2022-12-09T14:53:57.590Z,78.90
2022-12-09T14:57:10.643Z,53.30
2022-12-09T15:00:41.186Z,61.25
2022-12-09T15:03:57.106Z,55.58
2022-12-09T15:07:14.540Z,90.00
2022-12-09T15:10:34.672Z,99.10
2022-12-09T15:13:42.044Z,115.78
2022-12-09T15:16:50.538Z,115.30
2022-12-09T15:20:02.577Z,131.55
2022-12-09T15:23:39.680Z,142.25
2022-12-09T15:29:49.729Z,109.65
2022-12-09T15:32:54.010Z,146.73
2022-12-09T15:36:01.368Z,150.45
2022-12-09T15:39:20.268Z,161.57
2022-12-09T15:42:28.602Z,140.30
2022-12-09T15:45:38.106Z,150.88
2022-12-09T15:48:50.350Z,131.38
2022-12-09T15:51:57.327Z,133.70
2022-12-09T15:55:07.657Z,122.57
2022-12-09T15:58:15.981Z,202.77
2022-12-09T16:01:27.200Z,136.52
2022-12-09T16:04:42.553Z,154.40
2022-12-09T16:08:01.405Z,128.93
2022-12-09T16:11:06.557Z,111.78
2022-12-09T16:14:12.149Z,113.07
2022-12-09T16:20:45.162Z,127.28
2022-12-09T16:23:57.057Z,153.85
2022-12-09T16:27:05.617Z,166.35
2022-12-09T16:30:22.159Z,133.13
2022-12-09T16:33:26.827Z,133.80
2022-12-09T16:36:33.299Z,143.20
2022-12-09T16:39:44.328Z,143.35
2022-12-09T16:42:49.681Z,151.48
2022-12-09T16:49:05.864Z,139.52
2022-12-09T16:52:24.644Z,137.60
2022-12-09T16:55:33.244Z,146.10
2022-12-09T16:58:38.146Z,169.55
2022-12-09T17:01:43.784Z,161.20
2022-12-09T17:04:48.467Z,143.52
2022-12-09T17:07:53.103Z,196.15
2022-12-09T17:10:57.438Z,232.33
2022-12-09T17:14:01.986Z,426.80
2022-12-09T17:17:06.681Z,356.23
2022-12-09T17:20:12.042Z,225.30
2022-12-09T17:26:21.774Z,291.48
2022-12-09T17:29:26.593Z,291.55
2022-12-09T17:32:30.858Z,270.97
2022-12-09T17:35:39.789Z,270.25
2022-12-09T17:38:44.728Z,263.00
2022-12-09T17:41:50.457Z,210.23
2022-12-09T17:44:54.905Z,231.55
2022-12-09T17:47:59.149Z,210.27
2022-12-09T17:51:21.325Z,224.35
2022-12-09T17:54:25.683Z,205.70
2022-12-09T17:57:30.060Z,162.95
2022-12-09T18:00:34.630Z,162.83
2022-12-09T18:03:55.406Z,74.97
2022-12-09T18:07:00.917Z,122.68
2022-12-09T18:10:06.169Z,51.40
2022-12-09T18:16:15.564Z,80.90
2022-12-09T18:19:21.566Z,60.60
2022-12-09T18:22:25.928Z,71.65
2022-12-09T18:25:30.413Z,90.82
2022-12-09T18:28:34.890Z,81.95
2022-12-09T18:31:40.125Z,114.40
2022-12-09T18:34:44.496Z,89.72
2022-12-09T18:37:48.913Z,78.67
2022-12-09T18:41:01.937Z,48.72
2022-12-09T18:44:08.347Z,42.13
2022-12-09T18:47:13.030Z,62.88
2022-12-09T18:50:17.258Z,108.32
2022-12-09T18:53:21.870Z,109.70
2022-12-09T18:56:26.930Z,69.30
2022-12-09T18:59:32.333Z,46.15
2022-12-09T19:02:38.258Z,45.85
2022-12-09T19:05:43.959Z,33.60
2022-12-09T19:08:48.926Z,37.50
2022-12-09T19:11:54.500Z,29.65
2022-12-09T19:14:58.921Z,28.33
2022-12-09T19:18:03.331Z,32.60
2022-12-09T19:21:16.115Z,27.83
2022-12-09T19:24:23.455Z,22.48
2022-12-09T19:27:27.978Z,18.80
2022-12-09T19:30:32.134Z,34.67
2022-12-09T19:33:37.450Z,25.97
2022-12-09T19:36:43.524Z,25.70
2022-12-09T19:39:47.901Z,19.42
2022-12-09T19:42:52.539Z,27.77
2022-12-09T19:45:56.824Z,28.80
2022-12-09T19:49:01.921Z,47.90
2022-12-09T19:52:06.223Z,30.40
2022-12-09T19:55:14.380Z,26.38
2022-12-09T19:58:18.793Z,30.13
2022-12-09T20:01:26.229Z,25.73
2022-12-09T20:04:49.502Z,25.17
2022-12-09T20:07:55.062Z,20.50
2022-12-09T20:10:59.411Z,22.90
2022-12-09T20:14:06.029Z,20.50
2022-12-09T20:17:10.343Z,21.45
2022-12-09T20:20:14.861Z,24.15
2022-12-09T20:23:19.254Z,22.58
2022-12-09T20:26:29.078Z,17.67
2022-12-09T20:29:37.545Z,16.65
2022-12-09T20:32:42.379Z,13.68
2022-12-09T20:35:46.769Z,17.60
2022-12-09T20:38:53.845Z,21.10
2022-12-09T20:41:58.373Z,29.10
2022-12-09T20:45:02.903Z,19.60
2022-12-09T20:48:08.289Z,18.27
2022-12-09T20:51:26.615Z,24.58
2022-12-09T20:54:31.049Z,35.95
2022-12-09T20:57:35.688Z,28.30
2022-12-09T21:00:39.956Z,35.70
2022-12-09T21:03:45.130Z,31.73
2022-12-09T21:06:49.856Z,44.03
2022-12-09T21:09:54.462Z,28.02
2022-12-09T21:16:09.669Z,29.98
2022-12-09T21:19:16.713Z,27.73
2022-12-09T21:22:21.224Z,19.02
2022-12-09T21:25:25.665Z,82.57
2022-12-09T21:28:30.257Z,28.77
2022-12-09T21:31:36.740Z,19.60
2022-12-09T21:34:41.234Z,14.65
2022-12-09T21:37:49.621Z,29.08
2022-12-09T21:40:57.411Z,38.08
2022-12-09T21:44:02.288Z,26.40
2022-12-09T21:47:06.660Z,59.53
2022-12-09T21:50:11.591Z,56.10
2022-12-09T21:53:16.056Z,48.95
2022-12-09T21:56:21.611Z,62.55
2022-12-09T21:59:26.279Z,43.78
2022-12-09T22:02:30.686Z,130.70
2022-12-09T22:05:35.571Z,83.30
2022-12-09T22:08:41.213Z,106.07
2022-12-09T22:11:45.499Z,71.88
2022-12-09T22:14:49.875Z,93.45
2022-12-09T22:17:54.499Z,88.27
2022-12-09T22:21:24.078Z,81.22
2022-12-09T22:24:23.894Z,59.05
2022-12-09T22:27:30.265Z,71.25
2022-12-09T22:30:37.347Z,41.05
2022-12-09T22:33:41.701Z,108.50
2022-12-09T22:36:48.039Z,330.77
2022-12-09T22:39:53.083Z,282.67
2022-12-09T22:42:57.537Z,325.92
2022-12-09T22:46:10.539Z,319.43
2022-12-09T22:49:16.581Z,515.05
2022-12-09T22:52:21.127Z,797.70
2022-12-09T22:55:25.322Z,575.83
2022-12-09T22:58:29.746Z,447.00
2022-12-09T23:01:37.953Z,221.20
2022-12-09T23:04:42.742Z,118.72
2022-12-09T23:07:47.117Z,113.85
2022-12-09T23:10:51.452Z,193.60
2022-12-09T23:13:56.247Z,207.13
2022-12-09T23:17:00.959Z,183.77
2022-12-09T23:20:06.069Z,110.72
2022-12-09T23:23:10.955Z,84.65
2022-12-09T23:26:20.757Z,103.10
2022-12-09T23:29:25.674Z,100.90
2022-12-09T23:32:30.273Z,88.85
2022-12-09T23:35:39.434Z,101.30
2022-12-09T23:38:44.750Z,124.30
2022-12-09T23:41:49.749Z,673.33
2022-12-09T23:44:54.125Z,405.75
2022-12-09T23:47:58.574Z,111.15
2022-12-09T23:51:16.786Z,110.17
2022-12-09T23:54:21.085Z,83.32
2022-12-09T23:57:25.372Z,62.25
